Time;durP1;ratioP1;P1;durP2;ratioP2;P2;SDS_P1;SDS_P2;PMS_P1;PMS_P2;Temp;Humidity;BMP_temperature;BMP_pressure;BME280_temperature;BME280_humidity;BME280_pressure;Samples;Min_cycle;Max_cycle;Signal;HPM_P1;HPM_P2
2022/06/28 00:00:35;;;;;;;;;;;16.00;1.40;;;17.14;100.00;95801.89;654879;213;24738;-77
2022/06/28 00:03:18;;;;;;;;;;;16.00;1.40;;;17.16;100.00;95805.34;653787;216;24738;-78
2022/06/28 00:06:03;;;;;;;;;;;16.00;1.40;;;17.12;100.00;95802.53;653350;216;24884;-77
2022/06/28 00:08:46;;;;;;;;;;;16.00;1.40;;;17.12;100.00;95798.55;649824;217;24739;-77
2022/06/28 00:11:27;;;;;;;;;;;16.00;1.40;;;17.07;100.00;95799.89;650635;216;25641;-78
2022/06/28 00:16:59;;;;;;;;;;;15.90;1.40;;;16.95;100.00;95812.37;623148;224;25571;-78
2022/06/28 00:19:43;;;;;;;;;;;15.90;1.40;;;16.98;100.00;95815.65;653837;216;24815;-78
2022/06/28 00:22:25;;;;;;;;;;;15.90;1.40;;;16.99;100.00;95819.06;654861;212;24788;-78
2022/06/28 00:25:07;;;;;;;;;;;15.90;1.40;;;17.00;100.00;95822.45;655359;216;24800;-79
2022/06/28 00:27:54;;;;;;;;;;;15.90;1.40;;;16.96;100.00;95820.80;652439;212;24820;-77
2022/06/28 00:30:36;;;;;;;;;;;15.90;1.40;;;16.89;100.00;95817.64;653363;212;24821;-78
2022/06/28 00:35:51;;;;;;;;;;;15.80;1.40;;;16.84;100.00;95816.98;650388;217;24764;-79
2022/06/28 00:38:38;;;;;;;;;;;15.80;1.40;;;16.93;100.00;95812.58;654329;216;24926;-77
2022/06/28 00:41:23;;;;;;;;;;;15.90;1.40;;;17.06;100.00;95816.86;655613;216;24840;-79
2022/06/28 00:44:10;;;;;;;;;;;15.90;1.40;;;17.04;100.00;95811.95;649445;216;25228;-77
2022/06/28 00:46:52;;;;;;;;;;;15.90;1.40;;;17.00;100.00;95813.08;653239;216;24755;-77
2022/06/28 00:49:33;;;;;;;;;;;15.80;1.40;;;16.94;100.00;95814.82;653628;216;24826;-77
2022/06/28 00:52:14;;;;;;;;;;;15.80;1.40;;;16.85;100.00;95817.21;650166;216;25098;-77
2022/06/28 00:54:56;;;;;;;;;;;15.70;1.40;;;16.78;100.00;95820.12;654910;216;24833;-77
2022/06/28 00:57:37;;;;;;;;;;;15.60;1.40;;;16.78;100.00;95821.10;653965;212;24932;-77
2022/06/28 01:00:21;;;;;;;;;;;15.60;1.40;;;16.71;100.00;95822.33;654055;212;25406;-77
2022/06/28 01:03:04;;;;;;;;;;;15.50;1.40;;;16.65;100.00;95824.45;653487;216;24904;-76
2022/06/28 01:05:45;;;;;;;;;;;15.50;1.40;;;16.59;100.00;95828.00;622623;223;24863;-77
2022/06/28 01:08:31;;;;;;;;;;;15.50;1.40;;;16.58;100.00;95827.09;653565;216;24825;-77
2022/06/28 01:13:59;;;;;;;;;;;15.40;1.40;;;16.58;100.00;95835.05;654173;212;25167;-76
2022/06/28 01:16:41;;;;;;;;;;;15.50;1.40;;;16.54;100.00;95845.52;654366;212;24848;-77
2022/06/28 01:19:22;;;;;;;;;;;15.40;1.40;;;16.52;100.00;95840.61;653828;216;25166;-77
2022/06/28 01:22:05;;;;;;;;;;;15.40;1.40;;;16.47;100.00;95842.66;652963;216;24840;-77
2022/06/28 01:24:45;;;;;;;;;;;15.30;1.40;;;16.45;100.00;95841.98;654863;214;24805;-77
2022/06/28 01:27:27;;;;;;;;;;;15.30;1.40;;;16.43;100.00;95850.53;653940;216;25285;-77
2022/06/28 01:30:08;;;;;;;;;;;15.30;1.40;;;16.43;100.00;95855.91;621635;224;24944;-77
2022/06/28 01:32:56;;;;;;;;;;;15.30;1.40;;;16.43;100.00;95853.23;656428;212;24814;-79
2022/06/28 01:35:57;;;;;;;2.12;1.37;;;15.30;1.40;;;16.45;100.00;95853.19;647871;216;31507;-78
2022/06/28 01:38:45;;;;;;;2.10;1.40;;;15.30;1.40;;;16.43;100.00;95857.88;620155;225;31882;-78
2022/06/28 01:44:16;;;;;;;;;;;15.20;1.40;;;16.47;100.00;95864.02;655892;216;26449;-79
2022/06/28 01:46:59;;;;;;;;;;;15.30;1.40;;;16.44;100.00;95868.23;655442;216;24820;-78
2022/06/28 01:49:40;;;;;;;;;;;15.30;1.40;;;16.46;100.00;95867.08;654999;216;25440;-79
2022/06/28 01:52:28;;;;;;;;;;;15.30;1.40;;;16.48;100.00;95873.39;650135;216;24855;-78
2022/06/28 01:55:15;;;;;;;;;;;15.30;1.40;;;16.46;100.00;95883.21;654170;216;24855;-79
2022/06/28 01:58:02;;;;;;;;;;;15.30;1.40;;;16.51;100.00;95886.25;648079;218;24852;-79
2022/06/28 02:00:44;;;;;;;;;;;15.40;1.40;;;16.60;100.00;95889.21;652904;216;24941;-78
2022/06/28 02:03:27;;;;;;;;;;;15.40;1.40;;;16.54;100.00;95890.15;655435;216;24702;-79
2022/06/28 02:06:14;;;;;;;;;;;15.40;1.40;;;16.56;100.00;95890.20;653061;216;24846;-77
2022/06/28 02:08:59;;;;;;;;;;;15.40;1.40;;;16.54;100.00;95890.64;653870;216;24833;-78
2022/06/28 02:11:46;;;;;;;;;;;15.40;1.40;;;16.57;100.00;95894.75;654402;216;24933;-78
2022/06/28 02:14:33;;;;;;;;;;;15.50;1.40;;;16.65;100.00;95894.34;654071;216;24743;-77
2022/06/28 02:17:15;;;;;;;;;;;15.50;1.40;;;16.66;100.00;95889.88;653501;212;24818;-77
2022/06/28 02:19:58;;;;;;;;;;;15.50;1.40;;;16.66;100.00;95890.58;654198;213;24834;-79
2022/06/28 02:22:40;;;;;;;;;;;15.50;1.40;;;16.68;100.00;95887.30;655465;212;24724;-78
2022/06/28 02:25:23;;;;;;;;;;;15.50;1.40;;;16.71;100.00;95893.59;653144;216;25071;-77
2022/06/28 02:28:04;;;;;;;;;;;15.50;1.40;;;16.72;100.00;95884.66;654503;213;24914;-78
2022/06/28 02:30:46;;;;;;;;;;;15.50;1.40;;;16.72;100.00;95881.45;653102;216;24822;-79
2022/06/28 02:41:34;;;;;;;;;;;15.60;1.40;;;16.83;100.00;95881.31;652835;216;25392;-78
2022/06/28 02:44:18;;;;;;;;;;;15.60;1.40;;;16.80;100.00;95886.25;655521;216;24840;-77
2022/06/28 02:47:05;;;;;;;;;;;15.60;1.40;;;16.84;100.00;95882.39;653139;212;24754;-77
2022/06/28 02:49:46;;;;;;;;;;;15.60;1.40;;;16.80;100.00;95879.72;653297;216;25491;-78
2022/06/28 02:52:28;;;;;;;;;;;15.60;1.40;;;16.82;100.00;95882.12;645313;214;24869;-77
2022/06/28 02:55:09;;;;;;;;;;;15.60;1.40;;;16.87;100.00;95889.67;652550;212;24810;-77
2022/06/28 02:57:50;;;;;;;;;;;15.70;1.40;;;16.90;100.00;95884.45;654570;216;25512;-77
2022/06/28 03:00:32;;;;;;;;;;;15.60;1.40;;;16.79;100.00;95883.11;652521;216;24842;-77
2022/06/28 03:03:16;;;;;;;;;;;15.60;1.40;;;16.78;100.00;95888.14;655616;216;24804;-78
2022/06/28 03:06:02;;;;;;;;;;;15.50;1.40;;;16.79;100.00;95892.59;654160;216;25136;-77
2022/06/28 03:08:44;;;;;;;;;;;15.50;1.40;;;16.76;100.00;95892.83;653016;216;24837;-77
2022/06/28 03:11:28;;;;;;;;;;;15.50;1.40;;;16.80;100.00;95897.59;652058;212;24912;-77
2022/06/28 03:14:09;;;;;;;;;;;15.60;1.40;;;16.87;100.00;95902.16;649614;216;24716;-76
2022/06/28 03:16:51;;;;;;;;;;;15.60;1.40;;;16.83;100.00;95899.02;653437;216;24834;-76
2022/06/28 03:19:35;;;;;;;;;;;15.60;1.40;;;16.80;100.00;95897.83;652694;216;25153;-77
2022/06/28 03:22:16;;;;;;;;;;;15.60;1.40;;;16.75;100.00;95893.41;654197;216;24808;-77
2022/06/28 03:24:58;;;;;;;;;;;15.60;1.40;;;16.71;100.00;95896.39;649748;217;24736;-77
2022/06/28 03:27:39;;;;;;;;;;;15.60;1.40;;;16.66;100.00;95900.81;652874;216;24831;-77
2022/06/28 03:30:21;;;;;;;;;;;15.60;1.40;;;16.68;100.00;95902.47;622007;227;24969;-77
2022/06/28 03:35:51;;;;;;;2.90;1.85;;;15.60;1.40;;;16.72;100.00;95908.98;620735;226;31883;-77
2022/06/28 03:38:33;;;;;;;2.05;1.30;;;15.70;1.40;;;16.69;100.00;95907.41;646725;212;31588;-77
2022/06/28 03:41:22;;;;;;;2.60;2.00;;;15.70;1.40;;;16.68;100.00;95903.45;646809;212;31544;-77
2022/06/28 03:43:56;;;;;;;;;;;15.70;1.40;;;16.72;100.00;95899.48;653236;212;24732;-78
2022/06/28 03:46:40;;;;;;;;;;;15.70;1.40;;;16.73;100.00;95893.50;654254;216;24864;-78
2022/06/28 03:49:21;;;;;;;;;;;15.70;1.40;;;16.74;100.00;95901.77;653303;216;24849;-78
2022/06/28 03:52:03;;;;;;;;;;;15.60;1.40;;;16.73;100.00;95901.84;652469;216;25141;-77
2022/06/28 03:54:44;;;;;;;;;;;15.60;1.40;;;16.76;100.00;95902.69;653721;216;25004;-77
2022/06/28 03:57:28;;;;;;;;;;;15.60;1.40;;;16.79;100.00;95900.93;648770;216;25200;-77
2022/06/28 04:00:11;;;;;;;;;;;15.60;1.40;;;16.77;100.00;95898.36;650017;216;24812;-77
2022/06/28 04:02:55;;;;;;;;;;;15.60;1.40;;;16.79;100.00;95896.80;622849;227;24941;-77
2022/06/28 04:05:36;;;;;;;;;;;15.70;1.40;;;16.93;100.00;95897.67;653205;213;24828;-76
2022/06/28 04:08:18;;;;;;;;;;;15.80;1.40;;;16.88;100.00;95904.19;653887;212;24810;-77
2022/06/28 04:13:46;;;;;;;;;;;15.80;1.40;;;16.94;100.00;95905.88;652876;216;25200;-77
2022/06/28 04:16:32;;;;;;;;;;;15.80;1.40;;;16.93;100.00;95901.98;653173;216;24818;-77
2022/06/28 04:19:17;;;;;;;;;;;15.80;1.40;;;16.95;100.00;95896.38;654689;216;24883;-78
2022/06/28 04:22:05;;;;;;;;;;;15.80;1.40;;;16.99;100.00;95897.55;652464;216;25357;-77
2022/06/28 04:24:52;;;;;;;;;;;15.80;1.40;;;16.92;100.00;95900.54;655515;216;24945;-78
2022/06/28 04:27:39;;;;;;;;;;;15.80;1.40;;;16.91;100.00;95904.06;653388;216;25140;-77
2022/06/28 04:30:21;;;;;;;;;;;15.90;1.40;;;16.92;100.00;95905.02;649166;216;24729;-77
2022/06/28 04:33:02;;;;;;;;;;;15.90;1.40;;;16.90;100.00;95910.72;653987;212;24816;-77
2022/06/28 04:35:52;;;;;;;3.40;2.28;;;15.90;1.40;;;16.96;100.00;95911.03;618993;226;32187;-76
2022/06/28 04:38:39;;;;;;;1.90;1.40;;;15.90;1.40;;;16.86;100.00;95910.12;648968;212;31586;-79
2022/06/28 04:41:27;;;;;;;2.92;2.00;;;15.90;1.40;;;16.92;100.00;95905.97;646616;212;31522;-76
2022/06/28 04:44:09;;;;;;;2.30;2.03;;;15.90;1.40;;;16.97;100.00;95907.42;647547;216;31802;-76
2022/06/28 04:46:52;;;;;;;2.50;2.08;;;16.00;1.40;;;17.18;100.00;95901.74;646547;216;31576;-76
2022/06/28 04:49:34;;;;;;;6.10;1.65;;;16.10;1.40;;;17.36;100.00;95899.47;647103;216;31525;-76
2022/06/28 04:52:17;;;;;;;1.90;1.50;;;16.20;1.40;;;17.46;100.00;95900.45;617008;225;32026;-76
2022/06/28 04:55:02;;;;;;;2.30;2.10;;;16.30;1.40;;;17.38;100.00;95899.73;619801;222;32614;-77
2022/06/28 04:57:44;;;;;;;1.60;1.50;;;16.20;1.40;;;17.26;100.00;95900.25;620861;222;32037;-77
2022/06/28 05:00:32;;;;;;;2.10;1.53;;;16.10;1.40;;;17.36;100.00;95895.55;648585;216;31520;-78
2022/06/28 05:03:19;;;;;;;2.50;1.60;;;16.30;1.40;;;17.45;100.00;95890.69;646538;215;32147;-76
2022/06/28 05:06:01;;;;;;;1.60;1.50;;;16.30;1.40;;;17.54;100.00;95884.91;619733;226;31964;-76
2022/06/28 05:08:45;;;;;;;1.48;1.27;;;16.30;1.40;;;17.46;100.00;95890.13;646270;212;31641;-74
2022/06/28 05:14:01;;;;;;;1.77;1.30;;;16.30;1.40;;;17.56;100.00;95884.03;646241;216;31531;-75
2022/06/28 05:16:49;;;;;;;3.97;1.40;;;16.30;1.40;;;17.67;100.00;95874.48;617605;222;31837;-76
2022/06/28 05:19:36;;;;;;;1.70;1.35;;;16.20;1.40;;;17.71;100.00;95863.16;647787;216;31656;-75
2022/06/28 05:22:24;;;;;;;1.62;1.10;;;16.30;1.40;;;17.97;100.00;95857.11;645321;216;31698;-75
2022/06/28 05:25:12;;;;;;;1.62;1.52;;;16.50;1.40;;;18.15;100.00;95860.55;647035;216;31506;-74
2022/06/28 05:27:54;;;;;;;1.67;1.20;;;16.70;1.40;;;18.55;100.00;95845.90;647192;212;31551;-75
2022/06/28 05:30:35;;;;;;;1.98;1.87;;;16.90;1.40;;;18.74;100.00;95848.89;631902;217;31663;-74
2022/06/28 05:38:26;;;;;;;2.97;2.10;;;17.10;1.40;;;18.89;100.00;95842.66;646902;216;31580;-75
2022/06/28 05:41:09;;;;;;;2.90;1.75;;;17.20;1.40;;;18.89;100.00;95840.02;619198;226;32039;-74
2022/06/28 05:43:49;;;;;;;3.20;1.90;;;17.20;1.40;;;19.10;100.00;95839.84;647161;212;32062;-75
2022/06/28 05:46:32;;;;;;;1.77;1.67;;;17.20;1.40;;;18.83;100.00;95835.45;646675;216;31685;-74
2022/06/28 05:49:16;;;;;;;2.53;1.98;;;17.10;1.40;;;18.55;100.00;95823.62;646694;216;31510;-74
2022/06/28 05:51:59;;;;;;;2.78;2.35;;;17.00;1.40;;;19.41;100.00;95811.07;630264;221;31575;-76
2022/06/28 05:54:47;;;;;;;2.25;1.73;;;17.50;1.40;;;19.70;100.00;95813.14;646780;216;42706;-75
2022/06/28 05:57:35;;;;;;;2.72;1.90;;;17.90;1.40;;;19.83;100.00;95812.99;646050;216;32169;-77
2022/06/28 06:00:22;;;;;;;3.22;2.35;;;17.90;1.40;;;20.36;100.00;95798.53;647033;216;31738;-75
2022/06/28 06:03:04;;;;;;;3.35;1.95;;;18.00;1.40;;;20.06;100.00;95798.89;646041;212;42571;-75
2022/06/28 06:05:46;;;;;;;2.00;1.90;;;18.00;1.40;;;20.38;100.00;95809.59;648242;212;31612;-75
2022/06/28 06:08:28;;;;;;;2.03;1.90;;;18.10;1.40;;;20.32;100.00;95819.59;646679;213;43103;-75
2022/06/28 06:11:09;;;;;;;2.08;1.65;;;18.00;1.40;;;19.84;100.00;95837.31;646544;212;31934;-75
2022/06/28 06:13:56;;;;;;;2.37;1.35;;;17.60;1.40;;;19.73;100.00;95832.95;647747;216;31520;-75
2022/06/28 06:16:38;;;;;;;2.17;1.98;;;17.60;1.40;;;19.80;100.00;95817.70;647056;216;42172;-76
2022/06/28 06:19:22;;;;;;;2.10;1.90;;;17.80;1.40;;;20.05;100.00;95809.37;646452;216;31722;-75
2022/06/28 06:22:04;;;;;;;2.60;1.80;;;18.00;1.40;;;19.82;100.00;95811.47;646277;216;31592;-76
2022/06/28 06:24:46;;;;;;;3.10;1.40;;;18.00;1.40;;;20.33;100.00;95792.58;647223;212;31680;-75
2022/06/28 06:27:28;;;;;;;2.50;2.30;;;18.30;1.40;;;19.84;100.00;95801.89;647142;212;31957;-75
2022/06/28 06:30:10;;;;;;;2.70;2.17;;;18.00;1.40;;;20.03;100.00;95790.42;631576;222;31709;-76
2022/06/28 06:32:52;;;;;;;3.15;2.40;;;18.10;1.40;;;20.39;100.00;95802.20;646772;212;32366;-75
2022/06/28 06:35:51;;;;;;;2.40;1.80;;;18.40;1.40;;;20.84;100.00;95808.78;648145;212;42731;-75
2022/06/28 06:38:32;;;;;;;3.58;1.85;;;18.50;1.40;;;20.74;100.00;95815.72;647000;212;31696;-75
2022/06/28 06:41:14;;;;;;;1.83;1.62;;;18.50;1.40;;;20.77;100.00;95809.47;646936;212;31574;-75
2022/06/28 06:43:56;;;;;;;2.40;1.70;;;18.60;1.40;;;20.63;100.00;95804.75;648412;212;31577;-75
2022/06/28 06:46:38;;;;;;;2.78;1.75;;;18.40;1.40;;;20.40;100.00;95794.23;646225;216;31670;-75
2022/06/28 06:49:19;;;;;;;1.95;1.77;;;18.40;1.40;;;20.55;100.00;95784.88;647203;212;31572;-75
2022/06/28 06:52:01;;;;;;;1.90;1.70;;;18.30;1.40;;;20.21;100.00;95780.29;619123;226;31874;-75
2022/06/28 06:54:42;;;;;;;3.35;1.80;;;18.20;1.40;;;20.06;100.00;95774.15;619461;222;32607;-76
2022/06/28 06:57:24;;;;;;;6.20;2.10;;;18.20;1.40;;;20.31;100.00;95756.89;647809;212;31599;-75
2022/06/28 07:00:09;;;;;;;1.77;1.48;;;18.50;1.40;;;20.36;100.00;95753.70;619766;226;32251;-75
2022/06/28 07:02:49;;;;;;;2.47;2.25;;;18.40;1.40;;;20.02;100.00;95762.34;618399;222;32014;-76
2022/06/28 07:05:31;;;;;;;2.00;1.90;;;18.50;1.40;;;20.69;100.00;95761.73;645460;216;42777;-75
2022/06/28 07:08:12;;;;;;;3.00;2.00;;;18.80;1.40;;;20.65;100.00;95768.03;646396;216;31810;-76
2022/06/28 07:10:57;;;;;;;2.00;1.50;;;19.00;1.40;;;20.84;100.00;95779.92;646121;213;31548;-75
2022/06/28 07:13:40;;;;;;;2.53;1.80;;;19.30;1.40;;;21.46;100.00;95784.33;647848;216;31572;-75
2022/06/28 07:16:21;;;;;;;1.90;1.58;;;19.40;1.40;;;21.35;100.00;95794.00;619259;226;32070;-75
2022/06/28 07:19:03;;;;;;;1.98;1.67;;;19.30;1.40;;;21.24;100.00;95785.77;643149;216;31991;-75
2022/06/28 07:21:45;;;;;;;2.20;1.70;;;19.40;1.40;;;21.09;100.00;95794.42;647438;216;31607;-75
2022/06/28 07:24:26;;;;;;;2.87;1.95;;;19.40;1.40;;;21.72;100.00;95791.34;645779;216;31558;-75
2022/06/28 07:27:08;;;;;;;3.40;2.10;;;19.80;1.40;;;21.85;100.00;95799.56;647226;216;31654;-75
2022/06/28 07:29:50;;;;;;;1.90;1.70;;;20.00;1.40;;;21.73;100.00;95811.20;646167;216;31771;-75
2022/06/28 07:32:31;;;;;;;2.47;1.98;;;19.80;1.40;;;22.05;100.00;95824.05;647099;212;31751;-75
2022/06/28 07:35:51;;;;;;;1.67;1.30;;;20.00;1.40;;;21.76;100.00;95833.98;646779;216;31685;-75
2022/06/28 07:38:39;;;;;;;3.70;1.70;;;19.80;1.40;;;21.99;100.00;95838.44;646545;212;32229;-76
2022/06/28 07:41:23;;;;;;;1.87;1.67;;;19.80;1.40;;;22.15;100.00;95848.25;646034;216;32263;-75
2022/06/28 07:44:04;;;;;;;1.70;1.60;;;20.00;1.40;;;22.17;100.00;95855.69;646720;216;31785;-75
2022/06/28 07:46:46;;;;;;;2.25;1.65;;;20.10;1.40;;;22.28;100.00;95866.14;647457;216;31707;-75
2022/06/28 07:52:33;;;;;;;2.10;1.90;;;20.80;1.40;;;22.66;100.00;95872.45;647205;216;31705;-75
2022/06/28 07:54:57;;;;;;;3.03;1.70;;;20.50;1.40;;;22.73;100.00;95880.09;647200;212;31920;-75
2022/06/28 07:57:38;;;;;;;1.90;1.80;;;20.50;1.40;;;22.76;100.00;95883.30;646875;213;32051;-74
2022/06/28 08:00:21;;;;;;;1.90;1.80;;;20.20;1.40;;;23.11;100.00;95876.00;647121;216;32183;-75
2022/06/28 08:03:02;;;;;;;1.50;1.40;;;20.60;1.40;;;23.49;100.00;95875.89;646721;212;31970;-74
2022/06/28 08:05:43;;;;;;;2.20;1.70;;;21.30;1.40;;;23.41;100.00;95865.73;620271;222;32072;-74
2022/06/28 08:08:25;;;;;;;1.87;1.37;;;21.40;1.40;;;23.96;100.00;95855.56;646962;216;31521;-75
2022/06/28 08:11:10;;;;;;;2.80;1.40;;;21.30;1.40;;;23.95;100.00;95853.12;646202;215;43010;-74
2022/06/28 08:13:55;;;;;;;1.55;1.42;;;21.30;1.40;;;24.19;100.00;95844.51;645675;216;42157;-76
2022/06/28 08:16:36;;;;;;;1.50;1.40;;;21.70;1.40;;;23.82;100.00;95835.97;619601;222;42511;-75
2022/06/28 08:19:19;;;;;;;2.90;1.80;;;21.80;1.40;;;24.28;100.00;95829.63;648122;216;31784;-76
2022/06/28 08:22:00;;;;;;;3.30;1.73;;;21.70;1.40;;;24.62;100.00;95832.56;646814;216;31582;-75
2022/06/28 08:24:42;;;;;;;3.15;1.80;;;22.10;1.40;;;24.05;100.00;95832.19;645729;216;31880;-75
2022/06/28 08:27:24;;;;;;;2.80;1.80;;;22.10;1.40;;;24.15;100.00;95836.59;647153;212;31847;-75
2022/06/28 08:30:07;;;;;;;2.17;1.80;;;22.10;1.40;;;23.76;100.00;95836.11;645910;216;31771;-76
2022/06/28 08:32:49;;;;;;;1.90;1.70;;;22.10;1.40;;;24.20;100.00;95824.13;646687;216;31957;-75
2022/06/28 08:35:51;;;;;;;1.77;1.60;;;22.30;1.40;;;23.60;100.00;95827.77;647375;216;42164;-75
2022/06/28 08:38:33;;;;;;;2.40;1.60;;;21.90;1.40;;;23.33;100.00;95829.09;620122;226;31836;-75
2022/06/28 08:43:49;;;;;;;3.40;1.52;;;22.00;1.40;;;24.58;100.00;95824.22;645983;212;31971;-75
2022/06/28 08:49:10;;;;;;;1.33;1.23;;;22.00;1.40;;;23.94;100.00;95811.12;647056;212;31546;-75
2022/06/28 08:51:52;;;;;;;1.67;1.30;;;22.20;1.40;;;24.49;100.00;95806.42;647170;216;31563;-75
2022/06/28 08:54:34;;;;;;;2.28;1.75;;;22.60;1.40;;;23.83;100.00;95797.78;647313;213;42010;-76
2022/06/28 08:57:19;;;;;;;1.30;1.10;;;22.30;1.40;;;24.99;100.00;95792.25;631187;221;31963;-75
2022/06/28 09:00:01;;;;;;;1.50;1.40;;;23.00;1.40;;;24.26;100.00;95808.53;645900;216;31674;-75
2022/06/28 09:02:43;;;;;;;2.03;1.33;;;22.70;1.40;;;24.80;100.00;95813.34;647610;212;31596;-75
2022/06/28 09:05:25;;;;;;;1.80;1.40;;;23.20;1.40;;;26.03;100.00;95809.37;647093;216;31635;-75
2022/06/28 09:08:06;;;;;;;1.33;1.23;;;23.90;1.40;;;25.52;100.00;95810.88;647871;212;31851;-74
2022/06/28 09:10:48;;;;;;;1.75;1.65;;;23.40;1.40;;;25.41;100.00;95805.67;619221;226;31928;-75
2022/06/28 09:13:30;;;;;;;1.33;1.23;;;23.80;1.40;;;26.14;100.00;95796.61;646193;212;31528;-76
2022/06/28 09:16:13;;;;;;;1.40;1.30;;;24.10;1.40;;;26.12;100.00;95791.65;646538;216;31753;-75
2022/06/28 09:18:53;;;;;;;1.30;1.20;;;24.50;1.40;;;27.76;100.00;95780.94;647096;212;31545;-75
2022/06/28 09:21:35;;;;;;;1.50;1.40;;;25.40;1.40;;;27.34;89.21;95781.11;647671;216;31540;-75
2022/06/28 09:24:25;;;;;;;1.25;1.10;;;24.80;1.40;;;27.48;87.55;95776.55;641045;217;31799;-76
2022/06/28 09:27:06;;;;;;;1.45;1.35;;;24.60;1.40;;;27.70;94.23;95778.84;646327;212;31681;-76
2022/06/28 09:29:48;;;;;;;1.90;1.00;;;25.10;1.40;;;26.92;91.82;95772.00;646635;216;31529;-76
2022/06/28 09:32:31;;;;;;;1.20;1.10;;;24.70;1.40;;;27.99;94.95;95776.59;646886;212;31784;-76
2022/06/28 09:35:52;;;;;;;3.70;1.25;;;27.30;1.40;;;28.08;89.39;95773.33;647560;216;31631;-76
2022/06/28 09:38:33;;;;;;;2.50;1.00;;;26.30;1.40;;;29.06;85.49;95766.95;647821;212;32051;-76
2022/06/28 09:41:23;;;;;;;3.28;1.20;;;27.70;1.40;;;28.77;87.54;95768.37;647107;216;31535;-76
2022/06/28 09:44:04;;;;;;;1.90;1.10;;;25.70;1.40;;;29.02;88.04;95758.52;645052;215;31531;-76
2022/06/28 09:46:47;;;;;;;1.20;1.10;;;26.00;1.40;;;29.50;83.36;95749.67;645920;212;32112;-76
2022/06/28 09:49:29;;;;;;;0.98;0.88;;;25.40;1.40;;;28.94;81.75;95761.09;647246;216;31538;-76
2022/06/28 09:52:13;;;;;;;1.65;1.30;;;25.50;1.40;;;28.00;80.83;95758.20;646796;216;31535;-76
2022/06/28 09:54:55;;;;;;;1.10;1.00;;;24.90;1.40;;;29.08;79.33;95742.64;646415;216;31547;-76
2022/06/28 09:57:37;;;;;;;1.80;0.90;;;24.80;1.40;;;27.73;83.65;95749.39;647551;212;31498;-76
2022/06/28 10:00:21;;;;;;;1.30;1.20;;;23.70;1.40;;;26.82;89.31;95736.20;646610;216;31539;-76
2022/06/28 10:03:01;;;;;;;1.90;1.20;;;24.00;1.40;;;24.99;94.08;95737.25;645830;216;31816;-76
2022/06/28 10:05:42;;;;;;;0.98;0.98;;;23.30;1.40;;;25.76;95.85;95720.69;646862;216;31625;-76
2022/06/28 10:08:24;;;;;;;1.30;1.20;;;23.50;1.40;;;26.42;89.85;95703.55;647797;216;42128;-76
2022/06/28 10:11:06;;;;;;;1.20;1.00;;;23.60;1.40;;;26.66;94.67;95702.76;641651;217;31936;-76
2022/06/28 10:16:54;;;;;;;1.25;1.10;;;23.70;1.40;;;27.05;96.14;95712.52;647167;212;31596;-76
2022/06/28 10:19:34;;;;;;;1.10;1.00;;;24.70;1.40;;;27.90;91.52;95726.40;647231;216;32909;-76
2022/06/28 10:22:15;;;;;;;2.00;1.20;;;24.70;1.40;;;28.04;88.02;95726.64;646415;216;31575;-76
2022/06/28 10:24:59;;;;;;;1.30;1.10;;;24.30;1.40;;;26.68;85.40;95730.58;646445;216;32052;-76
2022/06/28 10:27:45;;;;;;;4.03;1.00;;;23.70;1.40;;;27.07;88.64;95727.87;646878;212;32158;-77
2022/06/28 10:30:28;;;;;;;1.20;1.00;;;23.90;1.40;;;26.41;89.70;95727.17;647330;212;31942;-76
2022/06/28 10:35:57;;;;;;;1.30;1.00;;;22.50;1.40;;;22.72;100.00;95720.34;646400;212;31570;-77
2022/06/28 10:39:15;;;;;;;1.60;1.33;;;21.30;1.40;;;23.45;100.00;95719.35;648031;213;31461;-77
2022/06/28 10:42:12;;;;;;;1.25;1.15;;;22.10;1.40;;;24.53;100.00;95710.81;618682;226;32069;-77
2022/06/28 10:44:54;;;;;;;3.62;1.20;;;22.30;1.40;;;24.60;98.94;95703.55;645188;212;31597;-77
2022/06/28 10:47:36;;;;;;;1.35;1.20;;;22.30;1.40;;;25.11;98.76;95703.41;648013;216;31885;-76
2022/06/28 10:53:01;;;;;;;1.17;1.08;;;22.00;1.40;;;23.95;100.00;95709.30;642345;216;31789;-77
2022/06/28 10:55:42;;;;;;;0.90;0.82;;;21.70;1.40;;;23.93;100.00;95711.33;647019;216;31703;-77
2022/06/28 10:58:24;;;;;;;1.83;1.27;;;21.80;1.40;;;24.28;100.00;95710.59;618311;226;32296;-76
2022/06/28 11:01:06;;;;;;;1.30;1.20;;;21.70;1.40;;;23.94;100.00;95711.81;646259;212;42166;-77
2022/06/28 11:04:07;;;;;;;2.20;1.40;;;21.50;1.40;;;23.56;100.00;95710.42;647076;212;31577;-77
2022/06/28 11:07:21;;;;;;;1.12;1.02;;;21.50;1.40;;;23.28;100.00;95703.50;642164;217;31549;-77
2022/06/28 11:10:12;;;;;;;1.30;1.20;;;21.50;1.40;;;23.62;100.00;95696.79;647397;212;31557;-77
2022/06/28 11:12:55;;;;;;;1.05;0.98;;;21.60;1.40;;;23.08;100.00;95691.25;646491;216;31485;-77
2022/06/28 11:15:43;;;;;;;1.08;1.02;;;21.50;1.40;;;23.89;100.00;95683.02;646203;212;31484;-76
2022/06/28 11:18:25;;;;;;;6.85;1.40;;;21.70;1.40;;;24.04;100.00;95674.73;647149;212;31544;-77
2022/06/28 11:21:06;;;;;;;1.90;1.10;;;21.80;1.40;;;24.07;100.00;95669.20;645747;212;31741;-76
2022/06/28 11:23:51;;;;;;;1.08;0.98;;;22.00;1.40;;;24.74;100.00;95671.02;645722;216;31518;-76
2022/06/28 11:29:13;;;;;;;2.10;1.13;;;22.10;1.40;;;24.68;97.75;95683.19;645893;212;31528;-77
2022/06/28 11:31:56;;;;;;;2.42;1.12;;;21.90;1.40;;;24.08;100.00;95687.25;646319;212;31764;-77
2022/06/28 11:35:56;;;;;;;1.30;1.20;;;21.60;1.40;;;23.54;100.00;95702.00;648268;216;33945;-76
2022/06/28 11:38:40;;;;;;;1.40;1.30;;;21.30;1.40;;;23.19;100.00;95703.92;646825;216;31520;-78
2022/06/28 11:41:29;;;;;;;1.40;1.30;;;21.20;1.40;;;23.48;100.00;95695.81;646585;212;31640;-73
2022/06/28 11:44:11;;;;;;;1.48;1.37;;;21.20;1.40;;;23.45;100.00;95690.22;646820;216;31603;-74
2022/06/28 11:46:53;;;;;;;1.50;1.40;;;21.30;1.40;;;23.16;100.00;95682.67;648012;216;31505;-74
2022/06/28 11:49:34;;;;;;;1.33;1.23;;;21.20;1.40;;;23.55;100.00;95678.48;647042;212;31549;-74
2022/06/28 11:52:16;;;;;;;1.30;1.20;;;21.50;1.40;;;23.66;100.00;95667.69;614534;227;31832;-73
2022/06/28 11:54:58;;;;;;;1.47;1.30;;;21.50;1.40;;;22.95;100.00;95666.25;619800;226;31928;-75
2022/06/28 11:57:44;;;;;;;3.00;1.40;;;21.00;1.40;;;22.78;100.00;95665.95;647566;216;31561;-77
2022/06/28 12:00:24;;;;;;;1.40;1.30;;;20.90;1.40;;;22.69;100.00;95659.92;646569;216;31552;-77
2022/06/28 12:03:06;;;;;;;1.60;1.50;;;20.80;1.40;;;22.66;100.00;95655.95;646871;212;31904;-76
2022/06/28 12:05:50;;;;;;;1.40;1.30;;;20.80;1.40;;;22.73;100.00;95653.31;646568;216;31507;-76
2022/06/28 12:08:55;;;;;;;1.35;1.25;;;20.80;1.40;;;22.41;100.00;95656.63;646250;216;31557;-77
2022/06/28 12:11:41;;;;;;;1.40;1.10;;;20.60;1.40;;;22.69;100.00;95665.10;647874;216;31586;-76
2022/06/28 12:14:30;;;;;;;1.87;1.77;;;20.60;1.40;;;22.52;100.00;95686.87;645713;216;31652;-75
2022/06/28 12:17:15;;;;;;;1.40;1.20;;;20.70;1.40;;;22.67;100.00;95706.73;645643;216;31613;-76
2022/06/28 12:20:07;;;;;;;1.80;1.70;;;20.70;1.40;;;22.47;100.00;95717.61;645813;212;31613;-76
2022/06/28 12:22:58;;;;;;;1.83;1.73;;;20.60;1.40;;;22.43;100.00;95711.28;645851;216;31574;-77
2022/06/28 12:25:40;;;;;;;2.03;1.80;;;20.60;1.40;;;22.47;100.00;95705.59;646773;216;31591;-77
2022/06/28 12:31:02;;;;;;;1.95;1.40;;;20.60;1.40;;;22.32;100.00;95709.68;647328;216;31535;-77
2022/06/28 12:36:00;;;;;;;1.70;1.35;;;20.50;1.40;;;22.17;100.00;95707.19;646307;216;31581;-76
2022/06/28 12:38:47;;;;;;;1.35;1.20;;;20.50;1.40;;;21.99;100.00;95710.73;645286;212;31547;-76
2022/06/28 12:41:35;;;;;;;1.70;1.60;;;20.40;1.40;;;21.42;100.00;95718.02;646463;216;31506;-77
2022/06/28 12:44:23;;;;;;;2.60;1.80;;;20.30;1.40;;;21.48;100.00;95710.16;647247;213;31658;-76
2022/06/28 12:47:11;;;;;;;2.90;1.80;;;20.30;1.40;;;21.61;100.00;95707.28;618926;226;31861;-77